Time,TemperatureF,DewpointF,PressureIn,WindDirection,WindDirectionDegrees,WindSpeedMPH,WindSpeedGustMPH,Humidity,HourlyPrecipIn,Conditions,Clouds,dailyrainin,SoftwareType,DateUTC
2013-05-17 00:01:00,65.1,58.4,29.96,East,87,0.0,0.0,79,0.00,SCT,,0.00,WeatherDisplay:10.37,2013-05-17 04:01:00,
2013-05-17 00:06:00,65.1,58.4,29.95,East,87,0.0,0.0,79,0.00,SCT,,0.00,WeatherDisplay:10.37,2013-05-17 04:06:00,
2013-05-17 00:11:00,64.9,58.3,29.95,East,87,0.0,0.0,79,0.00,SCT,,0.00,WeatherDisplay:10.37,2013-05-17 04:11:00,
2013-05-17 00:16:00,64.9,58.6,29.95,SSE,155,0.0,0.0,80,0.00,SCT,,0.00,WeatherDisplay:10.37,2013-05-17 04:16:00,
2013-05-17 00:21:00,64.9,58.6,29.95,ESE,109,0.0,0.0,80,0.00,SCT,,0.00,WeatherDisplay:10.37,2013-05-17 04:21:00,
2013-05-17 00:26:00,64.8,58.4,29.95,ENE,65,0.0,0.0,80,0.00,SCT,,0.00,WeatherDisplay:10.37,2013-05-17 04:26:00,
2013-05-17 00:31:00,64.8,58.8,29.95,NE,42,0.0,0.0,81,0.00,SCT,,0.00,WeatherDisplay:10.37,2013-05-17 04:31:00,
2013-05-17 00:36:00,64.8,58.8,29.95,NE,42,0.0,0.0,81,0.00,SCT,,0.00,WeatherDisplay:10.37,2013-05-17 04:36:00,
2013-05-17 00:41:00,64.8,58.8,29.95,NE,42,0.0,0.0,81,0.00,SCT,,0.00,WeatherDisplay:10.37,2013-05-17 04:41:00,
2013-05-17 00:46:00,64.6,58.6,29.96,NE,42,0.0,0.0,81,0.00,SCT,,0.00,WeatherDisplay:10.37,2013-05-17 04:46:00,
2013-05-17 00:51:00,64.6,58.6,29.96,North,357,0.0,0.0,81,0.00,SCT,,0.00,WeatherDisplay:10.37,2013-05-17 04:51:00,
2013-05-17 00:56:00,64.6,59.0,29.97,NNW,335,0.0,0.0,82,0.00,SCT,,0.00,WeatherDisplay:10.37,2013-05-17 04:56:00,
2013-05-17 01:01:00,64.6,58.6,29.97,WNW,289,0.0,0.0,81,0.00,SCT,,0.00,WeatherDisplay:10.37,2013-05-17 05:01:00,
2013-05-17 01:06:00,64.6,58.6,29.97,SSE,155,0.0,0.0,81,0.00,SCT,,0.00,WeatherDisplay:10.37,2013-05-17 05:06:00,
2013-05-17 01:11:00,64.6,59.0,29.96,ESE,109,0.0,0.0,82,0.00,SCT,,0.00,WeatherDisplay:10.37,2013-05-17 05:11:00,
2013-05-17 01:16:00,64.6,59.0,29.97,South,177,0.0,0.0,82,0.00,SCT,,0.00,WeatherDisplay:10.37,2013-05-17 05:16:00,
2013-05-17 01:21:00,64.6,59.0,29.97,SSE,155,0.0,0.0,82,0.00,SCT,,0.00,WeatherDisplay:10.37,2013-05-17 05:21:00,
2013-05-17 01:26:00,64.6,59.0,29.96,SW,222,0.0,0.0,82,0.00,SCT,,0.00,WeatherDisplay:10.37,2013-05-17 05:26:00,
2013-05-17 01:31:00,64.6,59.0,29.97,South,177,1.1,2.3,82,0.00,SCT,,0.00,WeatherDisplay:10.37,2013-05-17 05:31:00,
2013-05-17 01:36:00,64.6,59.0,29.97,SE,132,0.0,0.0,82,0.00,SCT,,0.00,WeatherDisplay:10.37,2013-05-17 05:36:00,
2013-05-17 01:41:00,64.8,58.8,29.98,SSE,155,2.0,2.3,81,0.00,SCT,,0.00,WeatherDisplay:10.37,2013-05-17 05:41:00,
2013-05-17 01:46:00,64.8,58.8,29.97,SSW,199,1.8,2.3,81,0.00,SCT,,0.00,WeatherDisplay:10.37,2013-05-17 05:46:00,
2013-05-17 01:51:00,64.8,58.8,29.97,ESE,109,0.0,0.0,81,0.00,SCT,,0.00,WeatherDisplay:10.37,2013-05-17 05:51:00,
2013-05-17 01:56:00,64.9,59.0,29.98,SE,132,0.0,0.0,81,0.00,SCT,,0.00,WeatherDisplay:10.37,2013-05-17 05:56:00,
2013-05-17 02:01:00,65.1,59.1,29.97,SSE,155,0.0,0.0,81,0.00,SCT,,0.00,WeatherDisplay:10.37,2013-05-17 06:01:00,
2013-05-17 02:06:00,65.1,58.8,29.97,East,87,0.0,0.0,80,0.00,SCT,,0.00,WeatherDisplay:10.37,2013-05-17 06:06:00,
2013-05-17 02:11:00,65.1,59.1,29.97,East,87,0.0,0.0,81,0.00,SCT,,0.00,WeatherDisplay:10.37,2013-05-17 06:11:00,
2013-05-17 02:16:00,65.1,59.1,29.98,NE,42,0.0,0.0,81,0.00,SCT,,0.00,WeatherDisplay:10.37,2013-05-17 06:16:00,
2013-05-17 02:21:00,65.1,59.1,29.98,North,357,0.0,0.0,81,0.00,SCT,,0.00,WeatherDisplay:10.37,2013-05-17 06:21:00,
2013-05-17 02:26:00,65.1,59.1,29.98,North,357,0.0,0.0,81,0.00,SCT,,0.00,WeatherDisplay:10.37,2013-05-17 06:26:00,
2013-05-17 02:31:00,64.9,59.0,29.98,North,357,0.0,0.0,81,0.00,SCT,,0.00,WeatherDisplay:10.37,2013-05-17 06:31:00,
2013-05-17 02:36:00,64.8,58.8,29.98,ESE,109,0.0,0.0,81,0.00,SCT,,0.00,WeatherDisplay:10.37,2013-05-17 06:36:00,
2013-05-17 02:41:00,64.8,58.8,29.98,ESE,109,0.0,0.0,81,0.00,SCT,,0.00,WeatherDisplay:10.37,2013-05-17 06:41:00,
2013-05-17 02:46:00,64.6,58.6,29.98,ESE,109,0.0,0.0,81,0.00,SCT,,0.00,WeatherDisplay:10.37,2013-05-17 06:46:00,
2013-05-17 02:51:00,64.4,58.4,29.98,ENE,65,0.0,0.0,81,0.00,SCT,,0.00,WeatherDisplay:10.37,2013-05-17 06:51:00,
2013-05-17 02:56:00,64.2,58.3,29.98,ENE,65,0.0,0.0,81,0.00,SCT,,0.00,WeatherDisplay:10.37,2013-05-17 06:56:00,
2013-05-17 03:01:00,64.2,58.3,29.98,NE,42,0.0,0.0,81,0.00,SCT,,0.00,WeatherDisplay:10.37,2013-05-17 07:01:00,
2013-05-17 03:06:00,64.2,58.6,29.98,NE,42,0.0,0.0,82,0.00,SCT,,0.00,WeatherDisplay:10.37,2013-05-17 07:06:00,
2013-05-17 03:11:00,64.2,58.6,29.98,NE,42,0.0,0.0,82,0.00,SCT,,0.00,WeatherDisplay:10.37,2013-05-17 07:11:00,
2013-05-17 03:16:00,64.2,58.6,29.98,NE,42,0.0,0.0,82,0.00,SCT,,0.00,WeatherDisplay:10.37,2013-05-17 07:16:00,
2013-05-17 03:21:00,64.2,58.6,29.98,NE,42,0.0,0.0,82,0.00,SCT,,0.00,WeatherDisplay:10.37,2013-05-17 07:21:00,
2013-05-17 03:26:00,64.0,58.8,29.98,NE,42,0.0,0.0,83,0.00,SCT,,0.00,WeatherDisplay:10.37,2013-05-17 07:26:00,
2013-05-17 03:31:00,64.0,58.8,29.98,SE,132,0.0,0.0,83,0.00,SCT,,0.00,WeatherDisplay:10.37,2013-05-17 07:31:00,
2013-05-17 03:36:00,64.2,58.9,29.98,SE,132,0.0,0.0,83,0.00,SCT,,0.00,WeatherDisplay:10.37,2013-05-17 07:36:00,
2013-05-17 03:41:00,64.2,58.9,29.98,SE,132,0.0,0.0,83,0.00,SCT,,0.00,WeatherDisplay:10.37,2013-05-17 07:41:00,
2013-05-17 03:46:00,64.2,58.9,29.98,SE,132,0.0,0.0,83,0.00,SCT,,0.00,WeatherDisplay:10.37,2013-05-17 07:46:00,
2013-05-17 03:51:00,64.2,58.9,29.98,SE,132,0.0,0.0,83,0.00,SCT,,0.00,WeatherDisplay:10.37,2013-05-17 07:51:00,
2013-05-17 03:56:00,64.0,58.8,29.98,SE,132,0.0,0.0,83,0.00,SCT,,0.00,WeatherDisplay:10.37,2013-05-17 07:56:00,
2013-05-17 04:01:00,64.0,58.8,29.98,SE,132,0.0,0.0,83,0.00,SCT,,0.00,WeatherDisplay:10.37,2013-05-17 08:01:00,
2013-05-17 04:06:00,63.9,58.6,29.98,SE,132,0.0,0.0,83,0.00,SCT,,0.00,WeatherDisplay:10.37,2013-05-17 08:06:00,
2013-05-17 04:11:00,63.9,58.3,29.98,SE,132,0.0,0.0,82,0.00,SCT,,0.00,WeatherDisplay:10.37,2013-05-17 08:11:00,
2013-05-17 04:16:00,63.7,58.1,29.98,ENE,65,0.0,0.0,82,0.00,SCT,,0.00,WeatherDisplay:10.37,2013-05-17 08:16:00,
2013-05-17 04:21:00,63.7,58.1,29.98,SE,132,0.0,0.0,82,0.00,SCT,,0.00,WeatherDisplay:10.37,2013-05-17 08:21:00,
2013-05-17 04:26:00,63.7,58.1,29.98,South,177,0.0,0.0,82,0.00,SCT,,0.00,WeatherDisplay:10.37,2013-05-17 08:26:00,
2013-05-17 04:31:00,63.7,58.1,29.98,SSW,199,0.9,1.1,82,0.00,SCT,,0.00,WeatherDisplay:10.37,2013-05-17 08:31:00,
2013-05-17 04:36:00,63.7,58.1,29.98,South,177,0.0,0.0,82,0.00,SCT,,0.00,WeatherDisplay:10.37,2013-05-17 08:36:00,
2013-05-17 04:41:00,63.7,58.1,29.98,SW,222,0.0,0.0,82,0.00,SCT,,0.00,WeatherDisplay:10.37,2013-05-17 08:41:00,
2013-05-17 04:46:00,63.7,58.1,29.98,South,177,1.1,1.1,82,0.00,SCT,,0.00,WeatherDisplay:10.37,2013-05-17 08:46:00,
2013-05-17 04:51:00,63.7,58.1,29.98,SW,222,0.9,1.6,82,0.00,SCT,,0.00,WeatherDisplay:10.37,2013-05-17 08:51:00,
2013-05-17 04:56:00,63.7,58.1,29.98,South,177,0.0,0.0,82,0.00,SCT,,0.00,WeatherDisplay:10.37,2013-05-17 08:56:00,
2013-05-17 05:01:00,63.7,58.1,29.98,SSE,155,1.4,3.5,82,0.00,SCT,,0.00,WeatherDisplay:10.37,2013-05-17 09:01:00,
2013-05-17 05:06:00,63.7,58.1,29.98,SSW,199,0.0,2.0,82,0.00,SCT,,0.00,WeatherDisplay:10.37,2013-05-17 09:06:00,
2013-05-17 05:11:00,63.5,57.2,29.98,SW,222,1.3,1.3,80,0.00,SCT,,0.00,WeatherDisplay:10.37,2013-05-17 09:11:00,
2013-05-17 05:16:00,63.5,56.9,29.98,West,267,1.6,1.6,79,0.00,SCT,,0.00,WeatherDisplay:10.37,2013-05-17 09:16:00,
2013-05-17 05:21:00,63.5,56.9,29.98,SW,222,0.0,0.0,79,0.00,SCT,,0.00,WeatherDisplay:10.37,2013-05-17 09:21:00,
2013-05-17 05:26:00,63.1,56.2,29.98,SW,222,0.5,1.1,78,0.00,SCT,,0.00,WeatherDisplay:10.37,2013-05-17 09:26:00,
2013-05-17 05:31:00,63.0,56.0,29.98,WSW,245,0.0,0.0,78,0.00,SCT,,0.00,WeatherDisplay:10.37,2013-05-17 09:31:00,
2013-05-17 05:36:00,63.0,56.0,29.99,SW,222,0.0,0.0,78,0.00,SCT,,0.00,WeatherDisplay:10.37,2013-05-17 09:36:00,
2013-05-17 05:41:00,62.8,56.2,29.99,SW,222,0.0,0.0,79,0.00,SCT,,0.00,WeatherDisplay:10.37,2013-05-17 09:41:00,
2013-05-17 05:46:00,62.8,56.2,29.99,SW,222,1.1,1.1,79,0.00,SCT,,0.00,WeatherDisplay:10.37,2013-05-17 09:46:00,
2013-05-17 05:51:00,62.6,56.0,29.99,South,177,1.3,1.3,79,0.00,SCT,,0.00,WeatherDisplay:10.37,2013-05-17 09:51:00,
2013-05-17 05:56:00,62.6,56.0,29.99,SSW,199,0.1,0.0,79,0.00,SCT,,0.00,WeatherDisplay:10.37,2013-05-17 09:56:00,
2013-05-17 06:01:00,62.4,55.8,29.99,SW,222,0.0,2.3,79,0.00,SCT,,0.00,WeatherDisplay:10.37,2013-05-17 10:01:00,
2013-05-17 06:06:00,62.4,55.5,29.99,South,177,0.0,0.0,78,0.00,SCT,,0.00,WeatherDisplay:10.37,2013-05-17 10:06:00,
2013-05-17 06:11:00,62.4,55.5,29.99,WSW,245,0.0,0.0,78,0.00,SCT,,0.00,WeatherDisplay:10.37,2013-05-17 10:11:00,
2013-05-17 06:16:00,62.4,55.8,29.99,SSW,199,0.0,0.0,79,0.00,SCT,,0.00,WeatherDisplay:10.37,2013-05-17 10:16:00,
2013-05-17 06:21:00,62.2,55.6,29.99,SW,222,0.0,0.0,79,0.00,SCT,,0.00,WeatherDisplay:10.37,2013-05-17 10:21:00,
2013-05-17 06:26:00,62.2,55.6,30.00,WSW,245,0.0,0.0,79,0.00,SCT,,0.00,WeatherDisplay:10.37,2013-05-17 10:26:00,
2013-05-17 06:31:00,61.9,55.3,30.00,SSE,155,0.7,3.8,79,0.00,SCT,,0.00,WeatherDisplay:10.37,2013-05-17 10:31:00,
2013-05-17 06:36:00,61.9,55.3,30.00,South,177,2.3,2.3,79,0.00,SCT,,0.00,WeatherDisplay:10.37,2013-05-17 10:36:00,
2013-05-17 06:41:00,61.7,55.1,30.00,South,177,1.4,2.3,79,0.00,SCT,,0.00,WeatherDisplay:10.37,2013-05-17 10:41:00,
2013-05-17 06:46:00,61.5,54.9,30.00,SSE,155,0.0,0.0,79,0.00,SCT,,0.00,WeatherDisplay:10.37,2013-05-17 10:46:00,
2013-05-17 06:51:00,61.5,54.9,30.00,SSE,155,0.0,0.0,79,0.00,SCT,,0.00,WeatherDisplay:10.37,2013-05-17 10:51:00,
2013-05-17 06:56:00,61.7,55.1,30.00,South,177,0.0,0.0,79,0.00,SCT,,0.00,WeatherDisplay:10.37,2013-05-17 10:56:00,
2013-05-17 07:01:00,61.7,55.5,30.00,South,177,0.0,0.0,80,0.00,SCT,,0.00,WeatherDisplay:10.37,2013-05-17 11:01:00,
2013-05-17 07:06:00,61.9,55.6,30.00,South,177,0.0,0.0,80,0.00,SCT,,0.00,WeatherDisplay:10.37,2013-05-17 11:06:00,
2013-05-17 07:11:00,62.1,55.8,30.00,SE,132,0.0,0.0,80,0.00,BKN,,0.00,WeatherDisplay:10.37,2013-05-17 11:11:00,
2013-05-17 07:16:00,62.2,56.7,30.00,ESE,109,0.0,0.0,82,0.00,BKN,,0.00,WeatherDisplay:10.37,2013-05-17 11:16:00,
2013-05-17 07:21:00,62.4,57.2,30.00,ENE,65,0.0,0.0,83,0.00,BKN,,0.00,WeatherDisplay:10.37,2013-05-17 11:21:00,
2013-05-17 07:26:00,62.4,57.5,30.00,ESE,109,0.0,0.0,84,0.00,BKN,,0.00,WeatherDisplay:10.37,2013-05-17 11:26:00,
2013-05-17 07:31:00,62.4,57.5,30.00,ESE,109,0.0,0.0,84,0.00,BKN,,0.00,WeatherDisplay:10.37,2013-05-17 11:31:00,
2013-05-17 07:36:00,62.4,57.5,30.01,ENE,65,0.0,0.0,84,0.00,BKN,,0.00,WeatherDisplay:10.37,2013-05-17 11:36:00,
2013-05-17 07:41:00,62.4,57.5,30.01,ENE,65,0.0,0.0,84,0.00,BKN,,0.00,WeatherDisplay:10.37,2013-05-17 11:41:00,
2013-05-17 07:46:00,62.8,57.5,30.01,East,87,0.0,0.0,83,0.00,BKN,,0.00,WeatherDisplay:10.37,2013-05-17 11:46:00,
2013-05-17 07:51:00,63.0,57.7,30.01,ESE,109,0.0,0.0,83,0.00,BKN,,0.00,WeatherDisplay:10.37,2013-05-17 11:51:00,
2013-05-17 07:56:00,63.1,57.9,30.01,ESE,109,0.0,0.0,83,0.00,BKN,,0.00,WeatherDisplay:10.37,2013-05-17 11:56:00,
2013-05-17 08:01:00,63.1,57.9,30.01,ESE,109,0.0,0.0,83,0.00,BKN,,0.00,WeatherDisplay:10.37,2013-05-17 12:01:00,
2013-05-17 08:06:00,63.3,57.7,30.02,South,177,0.0,0.0,82,0.00,BKN,,0.00,WeatherDisplay:10.37,2013-05-17 12:06:00,
2013-05-17 08:11:00,63.3,57.7,30.02,South,177,0.8,1.1,82,0.00,BKN,,0.00,WeatherDisplay:10.37,2013-05-17 12:11:00,
2013-05-17 08:16:00,63.7,58.1,30.02,South,177,3.4,3.5,82,0.00,BKN,,0.00,WeatherDisplay:10.37,2013-05-17 12:16:00,
2013-05-17 08:21:00,64.0,58.4,30.02,SSE,155,0.0,0.0,82,0.00,BKN,,0.00,WeatherDisplay:10.37,2013-05-17 12:21:00,
2013-05-17 08:26:00,64.8,59.1,30.02,SSW,199,1.8,2.3,82,0.00,BKN,,0.00,WeatherDisplay:10.37,2013-05-17 12:26:00,
2013-05-17 08:31:00,65.3,59.7,30.02,SW,222,1.8,2.3,82,0.00,BKN,,0.00,WeatherDisplay:10.37,2013-05-17 12:31:00,
2013-05-17 08:36:00,66.6,60.5,30.02,SW,222,1.8,2.3,81,0.00,BKN,,0.00,WeatherDisplay:10.37,2013-05-17 12:36:00,
2013-05-17 08:41:00,67.1,60.7,30.02,West,267,0.0,0.0,80,0.00,BKN,,0.00,WeatherDisplay:10.37,2013-05-17 12:41:00,
2013-05-17 08:46:00,67.8,61.1,30.03,WNW,289,0.0,1.6,79,0.00,BKN,,0.00,WeatherDisplay:10.37,2013-05-17 12:46:00,
2013-05-17 08:51:00,68.4,60.9,30.03,South,177,2.0,2.3,77,0.00,BKN,,0.00,WeatherDisplay:10.37,2013-05-17 12:51:00,
2013-05-17 08:56:00,68.7,60.8,30.03,SSW,199,0.4,0.0,76,0.00,BKN,,0.00,WeatherDisplay:10.37,2013-05-17 12:56:00,
2013-05-17 09:01:00,68.7,60.8,30.03,SSW,199,2.6,2.6,76,0.00,BKN,,0.00,WeatherDisplay:10.37,2013-05-17 13:01:00,
2013-05-17 09:06:00,69.1,60.8,30.02,SSW,199,4.0,4.0,75,0.00,BKN,,0.00,WeatherDisplay:10.37,2013-05-17 13:06:00,
2013-05-17 09:11:00,70.0,61.7,30.03,South,177,1.5,2.3,75,0.00,BKN,,0.00,WeatherDisplay:10.37,2013-05-17 13:11:00,
2013-05-17 09:16:00,70.0,61.3,30.03,South,177,0.0,0.0,74,0.00,BKN,,0.00,WeatherDisplay:10.37,2013-05-17 13:16:00,
2013-05-17 09:21:00,70.0,61.3,30.03,South,177,0.0,0.0,74,0.00,BKN,,0.00,WeatherDisplay:10.37,2013-05-17 13:21:00,
2013-05-17 09:26:00,71.4,61.9,30.02,West,267,0.6,3.5,72,0.00,BKN,,0.00,WeatherDisplay:10.37,2013-05-17 13:26:00,
2013-05-17 09:31:00,71.4,61.5,30.03,WSW,245,1.5,4.6,71,0.00,BKN,,0.00,WeatherDisplay:10.37,2013-05-17 13:31:00,
2013-05-17 09:36:00,73.0,62.7,30.02,SW,222,1.6,1.6,70,0.00,BKN,,0.00,WeatherDisplay:10.37,2013-05-17 13:36:00,
2013-05-17 09:41:00,73.2,62.8,30.03,South,177,3.6,3.6,70,0.00,BKN,,0.00,WeatherDisplay:10.37,2013-05-17 13:41:00,
2013-05-17 09:46:00,73.6,62.4,30.03,SSE,155,0.0,0.0,68,0.00,BKN,,0.00,WeatherDisplay:10.37,2013-05-17 13:46:00,
2013-05-17 09:51:00,73.6,62.4,30.03,SSE,155,0.0,0.0,68,0.00,BKN,,0.00,WeatherDisplay:10.37,2013-05-17 13:51:00,
2013-05-17 09:56:00,73.6,61.9,30.03,SSE,155,0.0,0.0,67,0.00,BKN,,0.00,WeatherDisplay:10.37,2013-05-17 13:56:00,
2013-05-17 10:01:00,73.6,61.9,30.03,South,177,2.0,2.3,67,0.00,BKN,,0.00,WeatherDisplay:10.37,2013-05-17 14:01:00,
2013-05-17 10:06:00,73.6,61.9,30.03,SSW,199,0.0,0.0,67,0.00,BKN,,0.00,WeatherDisplay:10.37,2013-05-17 14:06:00,
2013-05-17 10:11:00,73.4,61.8,30.03,South,177,0.0,0.0,67,0.00,OVC,,0.00,WeatherDisplay:10.37,2013-05-17 14:11:00,
2013-05-17 10:16:00,73.2,62.0,30.03,SSE,155,2.0,2.5,68,0.00,OVC,,0.00,WeatherDisplay:10.37,2013-05-17 14:16:00,
2013-05-17 10:21:00,73.2,61.6,30.03,South,177,0.0,0.0,67,0.00,OVC,,0.00,WeatherDisplay:10.37,2013-05-17 14:21:00,
2013-05-17 10:26:00,73.2,61.6,30.03,SSW,199,1.3,1.6,67,0.00,OVC,,0.00,WeatherDisplay:10.37,2013-05-17 14:26:00,
2013-05-17 10:31:00,73.2,61.6,30.03,SSW,199,0.0,0.0,67,0.00,OVC,,0.00,WeatherDisplay:10.37,2013-05-17 14:31:00,
2013-05-17 10:36:00,73.2,61.6,30.03,SSE,155,0.0,0.0,67,0.00,OVC,,0.00,WeatherDisplay:10.37,2013-05-17 14:36:00,
2013-05-17 10:41:00,73.6,61.9,30.03,SSE,155,1.6,2.3,67,0.00,OVC,,0.00,WeatherDisplay:10.37,2013-05-17 14:41:00,
2013-05-17 10:46:00,73.6,61.1,30.03,SW,222,0.0,0.0,65,0.00,OVC,,0.00,WeatherDisplay:10.37,2013-05-17 14:46:00,
2013-05-17 10:51:00,73.4,60.9,30.03,SSE,155,1.5,1.5,65,0.00,OVC,,0.00,WeatherDisplay:10.37,2013-05-17 14:51:00,
2013-05-17 10:56:00,73.4,61.3,30.03,WSW,245,0.0,0.0,66,0.00,OVC,,0.00,WeatherDisplay:10.37,2013-05-17 14:56:00,
2013-05-17 11:01:00,73.6,61.5,30.04,WSW,245,0.0,0.0,66,0.00,OVC,,0.00,WeatherDisplay:10.37,2013-05-17 15:01:00,
2013-05-17 11:06:00,73.9,61.9,30.04,SW,222,0.0,0.0,66,0.00,OVC,,0.00,WeatherDisplay:10.37,2013-05-17 15:06:00,
2013-05-17 11:11:00,74.3,62.2,30.04,SSE,155,0.0,0.0,66,0.00,OVC,,0.00,WeatherDisplay:10.37,2013-05-17 15:11:00,
2013-05-17 11:16:00,74.5,62.4,30.04,South,177,0.9,4.2,66,0.00,OVC,,0.00,WeatherDisplay:10.37,2013-05-17 15:16:00,
2013-05-17 11:21:00,75.0,62.5,30.05,SSW,199,3.4,4.0,65,0.00,OVC,,0.00,WeatherDisplay:10.37,2013-05-17 15:21:00,
2013-05-17 11:26:00,75.4,63.2,30.06,WSW,245,0.2,1.1,66,0.00,OVC,,0.00,WeatherDisplay:10.37,2013-05-17 15:26:00,
2013-05-17 11:31:00,75.7,63.6,30.05,South,177,1.8,3.6,66,0.00,OVC,,0.00,WeatherDisplay:10.37,2013-05-17 15:31:00,
2013-05-17 11:36:00,75.9,63.3,30.05,SSE,155,3.0,3.5,65,0.00,OVC,,0.00,WeatherDisplay:10.37,2013-05-17 15:36:00,
2013-05-17 11:41:00,75.7,62.7,30.06,South,177,3.5,3.6,64,0.00,OVC,,0.00,WeatherDisplay:10.37,2013-05-17 15:41:00,
2013-05-17 11:46:00,75.4,62.4,30.06,SSW,199,3.4,3.5,64,0.00,OVC,,0.00,WeatherDisplay:10.37,2013-05-17 15:46:00,
2013-05-17 11:51:00,74.8,62.3,30.06,South,177,0.0,0.0,65,0.00,OVC,,0.00,WeatherDisplay:10.37,2013-05-17 15:51:00,
2013-05-17 11:56:00,74.8,62.7,30.06,SSE,155,4.0,4.0,66,0.00,OVC,,0.00,WeatherDisplay:10.37,2013-05-17 15:56:00,
2013-05-17 12:01:00,74.5,62.4,30.06,South,177,6.0,6.0,66,0.00,OVC,,0.00,WeatherDisplay:10.37,2013-05-17 16:01:00,
2013-05-17 12:06:00,74.3,62.2,30.06,WSW,245,2.7,3.1,66,0.00,OVC,,0.00,WeatherDisplay:10.37,2013-05-17 16:06:00,
2013-05-17 12:11:00,74.1,62.0,30.06,SSW,199,0.0,1.1,66,0.00,-RA,,0.00,WeatherDisplay:10.37,2013-05-17 16:11:00,
2013-05-17 12:16:00,73.9,61.9,30.06,SSE,155,2.5,2.5,66,0.00,-RA,,0.00,WeatherDisplay:10.37,2013-05-17 16:16:00,
2013-05-17 12:21:00,74.1,62.5,30.06,WSW,245,0.0,0.0,67,0.00,-RA,,0.00,WeatherDisplay:10.37,2013-05-17 16:21:00,
2013-05-17 12:26:00,74.5,62.8,30.06,South,177,0.0,0.0,67,0.00,-RA,,0.00,WeatherDisplay:10.37,2013-05-17 16:26:00,
2013-05-17 12:31:00,74.8,63.1,30.06,South,177,0.0,0.0,67,0.00,-RA,,0.00,WeatherDisplay:10.37,2013-05-17 16:31:00,
2013-05-17 12:36:00,75.0,63.3,30.06,SSW,199,1.7,2.3,67,0.00,-RA,,0.00,WeatherDisplay:10.37,2013-05-17 16:36:00,
2013-05-17 12:41:00,75.6,63.4,30.06,SSE,155,3.4,3.5,66,0.00,-RA,,0.00,WeatherDisplay:10.37,2013-05-17 16:41:00,
2013-05-17 12:46:00,75.7,63.1,30.05,SSE,155,0.0,0.0,65,0.00,-RA,,0.00,WeatherDisplay:10.37,2013-05-17 16:46:00,
2013-05-17 12:51:00,75.9,62.9,30.05,SSE,155,0.0,0.0,64,0.00,-RA,,0.00,WeatherDisplay:10.37,2013-05-17 16:51:00,
2013-05-17 12:56:00,76.3,63.2,30.04,SSW,199,0.7,1.1,64,0.00,-RA,,0.00,WeatherDisplay:10.37,2013-05-17 16:56:00,
2013-05-17 13:01:00,77.4,64.2,30.04,South,177,2.0,2.3,64,0.00,-RA,,0.00,WeatherDisplay:10.37,2013-05-17 17:01:00,
2013-05-17 13:06:00,78.1,64.5,30.04,SSE,155,1.8,2.7,63,0.00,-RA,,0.00,WeatherDisplay:10.37,2013-05-17 17:06:00,
2013-05-17 13:11:00,78.4,64.3,30.04,SSE,155,2.9,3.5,62,0.00,OVC,,0.00,WeatherDisplay:10.37,2013-05-17 17:11:00,
2013-05-17 13:16:00,77.9,63.8,30.04,SE,132,0.7,1.1,62,0.00,OVC,,0.00,WeatherDisplay:10.37,2013-05-17 17:16:00,
2013-05-17 13:21:00,77.5,63.5,30.04,WSW,245,0.8,2.3,62,0.00,OVC,,0.00,WeatherDisplay:10.37,2013-05-17 17:21:00,
2013-05-17 13:26:00,77.2,64.1,30.05,SW,222,0.0,0.0,64,0.00,OVC,,0.00,WeatherDisplay:10.37,2013-05-17 17:26:00,
2013-05-17 13:31:00,77.4,64.2,30.05,South,177,2.4,2.4,64,0.00,OVC,,0.00,WeatherDisplay:10.37,2013-05-17 17:31:00,
2013-05-17 13:36:00,78.1,64.9,30.05,SW,222,4.3,5.8,64,0.00,OVC,,0.00,WeatherDisplay:10.37,2013-05-17 17:36:00,
2013-05-17 13:41:00,78.1,64.9,30.05,WNW,289,1.6,5.8,64,0.00,OVC,,0.00,WeatherDisplay:10.37,2013-05-17 17:41:00,
2013-05-17 13:46:00,77.9,64.3,30.05,South,177,4.3,4.6,63,0.00,OVC,,0.00,WeatherDisplay:10.37,2013-05-17 17:46:00,
2013-05-17 13:51:00,77.4,63.8,30.05,SW,222,0.2,1.1,63,0.00,OVC,,0.00,WeatherDisplay:10.37,2013-05-17 17:51:00,
2013-05-17 13:56:00,76.6,63.5,30.04,SW,222,0.0,0.0,64,0.00,OVC,,0.00,WeatherDisplay:10.37,2013-05-17 17:56:00,
2013-05-17 14:01:00,75.6,63.0,30.05,SSW,199,1.3,2.3,65,0.00,OVC,,0.00,WeatherDisplay:10.37,2013-05-17 18:01:00,
2013-05-17 14:06:00,75.0,62.9,30.04,South,177,0.8,1.1,66,0.00,OVC,,0.00,WeatherDisplay:10.37,2013-05-17 18:06:00,
2013-05-17 14:11:00,74.5,62.8,30.04,SE,132,1.3,1.3,67,0.00,OVC,,0.00,WeatherDisplay:10.37,2013-05-17 18:11:00,
2013-05-17 14:16:00,74.1,62.9,30.04,SSW,199,0.9,2.9,68,0.00,OVC,,0.00,WeatherDisplay:10.37,2013-05-17 18:16:00,
2013-05-17 14:21:00,74.1,62.9,30.04,South,177,4.0,5.8,68,0.00,OVC,,0.00,WeatherDisplay:10.37,2013-05-17 18:21:00,
2013-05-17 14:26:00,74.1,63.3,30.05,SSE,155,2.2,2.3,69,0.00,OVC,,0.00,WeatherDisplay:10.37,2013-05-17 18:26:00,
2013-05-17 14:31:00,74.1,63.7,30.04,SSE,155,1.7,2.3,70,0.00,OVC,,0.00,WeatherDisplay:10.37,2013-05-17 18:31:00,
2013-05-17 14:36:00,74.5,63.6,30.05,SSE,155,4.3,5.1,69,0.00,OVC,,0.00,WeatherDisplay:10.37,2013-05-17 18:36:00,
2013-05-17 14:41:00,74.7,63.4,30.05,SE,132,3.8,3.8,68,0.00,OVC,,0.00,WeatherDisplay:10.37,2013-05-17 18:41:00,
2013-05-17 14:46:00,74.5,63.6,30.05,SE,132,0.9,2.2,69,0.00,OVC,,0.00,WeatherDisplay:10.37,2013-05-17 18:46:00,
2013-05-17 14:51:00,74.5,63.2,30.05,South,177,2.7,3.5,68,0.00,OVC,,0.00,WeatherDisplay:10.37,2013-05-17 18:51:00,
2013-05-17 14:56:00,74.1,63.7,30.05,South,177,2.9,3.5,70,0.00,OVC,,0.00,WeatherDisplay:10.37,2013-05-17 18:56:00,
2013-05-17 15:01:00,73.8,63.4,30.04,WSW,245,3.1,3.5,70,0.00,OVC,,0.00,WeatherDisplay:10.37,2013-05-17 19:01:00,
2013-05-17 15:06:00,73.2,62.4,30.04,SSE,155,5.6,6.9,69,0.00,OVC,,0.00,WeatherDisplay:10.37,2013-05-17 19:06:00,
2013-05-17 15:11:00,73.0,62.7,30.04,SW,222,0.7,1.1,70,0.00,BKN,,0.00,WeatherDisplay:10.37,2013-05-17 19:11:00,
2013-05-17 15:16:00,73.0,62.7,30.04,SSE,155,3.6,4.7,70,0.00,BKN,,0.00,WeatherDisplay:10.37,2013-05-17 19:16:00,
2013-05-17 15:21:00,73.0,62.3,30.04,South,177,0.3,4.6,69,0.00,BKN,,0.00,WeatherDisplay:10.37,2013-05-17 19:21:00,
2013-05-17 15:26:00,73.0,62.3,30.04,South,177,5.7,5.8,69,0.00,BKN,,0.00,WeatherDisplay:10.37,2013-05-17 19:26:00,
2013-05-17 15:31:00,73.0,62.3,30.04,SSW,199,5.0,6.0,69,0.00,BKN,,0.00,WeatherDisplay:10.37,2013-05-17 19:31:00,
2013-05-17 15:36:00,73.0,62.3,30.03,SSW,199,7.6,8.1,69,0.00,BKN,,0.00,WeatherDisplay:10.37,2013-05-17 19:36:00,
2013-05-17 15:41:00,73.2,62.4,30.04,SW,222,2.9,3.6,69,0.00,BKN,,0.00,WeatherDisplay:10.37,2013-05-17 19:41:00,
2013-05-17 15:46:00,73.4,62.6,30.04,SW,222,7.1,8.1,69,0.00,BKN,,0.00,WeatherDisplay:10.37,2013-05-17 19:46:00,
2013-05-17 15:51:00,73.2,62.0,30.03,SSE,155,2.8,5.8,68,0.00,BKN,,0.00,WeatherDisplay:10.37,2013-05-17 19:51:00,
2013-05-17 15:56:00,73.0,61.9,30.03,SW,222,3.1,3.5,68,0.02,RA,,0.02,WeatherDisplay:10.37,2013-05-17 19:56:00,
2013-05-17 16:01:00,72.7,61.9,30.03,SW,222,1.9,3.5,69,0.02,RA,,0.02,WeatherDisplay:10.37,2013-05-17 20:01:00,
2013-05-17 16:06:00,72.5,61.7,30.03,SW,222,3.6,5.8,69,0.02,BKN,,0.02,WeatherDisplay:10.37,2013-05-17 20:06:00,
2013-05-17 16:11:00,72.3,61.6,30.03,WSW,245,4.2,4.6,69,0.02,SCT,,0.02,WeatherDisplay:10.37,2013-05-17 20:11:00,
2013-05-17 16:16:00,71.8,61.1,30.03,WSW,245,3.3,3.5,69,0.02,SCT,,0.02,WeatherDisplay:10.37,2013-05-17 20:16:00,
2013-05-17 16:21:00,71.4,60.7,30.03,SSW,199,2.1,6.9,69,0.02,SCT,,0.02,WeatherDisplay:10.37,2013-05-17 20:21:00,
2013-05-17 16:26:00,71.4,61.1,30.02,SSW,199,4.7,4.7,70,0.02,SCT,,0.02,WeatherDisplay:10.37,2013-05-17 20:26:00,
2013-05-17 16:31:00,71.2,61.0,30.01,WSW,245,2.0,2.5,70,0.02,SCT,,0.02,WeatherDisplay:10.37,2013-05-17 20:31:00,
2013-05-17 16:36:00,71.4,61.5,30.02,SW,222,3.6,3.6,71,0.02,SCT,,0.02,WeatherDisplay:10.37,2013-05-17 20:36:00,
2013-05-17 16:41:00,71.4,61.5,30.02,SSW,199,0.0,1.3,71,0.02,SCT,,0.02,WeatherDisplay:10.37,2013-05-17 20:41:00,
2013-05-17 16:46:00,71.4,61.9,30.01,SSE,155,1.0,2.2,72,0.02,SCT,,0.02,WeatherDisplay:10.37,2013-05-17 20:46:00,
2013-05-17 16:51:00,71.6,62.1,30.01,South,177,0.0,3.5,72,0.02,SCT,,0.02,WeatherDisplay:10.37,2013-05-17 20:51:00,
2013-05-17 16:56:00,71.4,61.9,30.01,South,177,0.0,0.0,72,0.00,SCT,,0.02,WeatherDisplay:10.37,2013-05-17 20:56:00,
2013-05-17 17:01:00,71.8,62.3,30.01,South,177,4.3,4.6,72,0.00,SCT,,0.02,WeatherDisplay:10.37,2013-05-17 21:01:00,
2013-05-17 17:06:00,72.1,62.6,30.00,SW,222,1.3,3.5,72,0.00,SCT,,0.02,WeatherDisplay:10.37,2013-05-17 21:06:00,
2013-05-17 17:11:00,72.7,63.1,30.01,SSW,199,2.9,3.5,72,0.00,-RA,,0.02,WeatherDisplay:10.37,2013-05-17 21:11:00,
2013-05-17 17:16:00,73.2,63.2,30.01,SW,222,1.0,1.1,71,0.00,-RA,,0.02,WeatherDisplay:10.37,2013-05-17 21:16:00,
2013-05-17 17:21:00,73.6,63.6,30.01,SW,222,2.0,2.3,71,0.00,-RA,,0.02,WeatherDisplay:10.37,2013-05-17 21:21:00,
2013-05-17 17:26:00,73.6,63.6,30.01,SE,132,3.4,3.5,71,0.00,-RA,,0.02,WeatherDisplay:10.37,2013-05-17 21:26:00,
2013-05-17 17:31:00,73.2,62.8,30.00,SSW,199,2.0,3.1,70,0.00,-RA,,0.02,WeatherDisplay:10.37,2013-05-17 21:31:00,
2013-05-17 17:36:00,73.2,63.2,30.00,WSW,245,0.0,1.1,71,0.00,-RA,,0.02,WeatherDisplay:10.37,2013-05-17 21:36:00,
2013-05-17 17:41:00,73.2,62.8,30.00,SSW,199,1.8,2.3,70,0.00,-RA,,0.02,WeatherDisplay:10.37,2013-05-17 21:41:00,
2013-05-17 17:46:00,73.2,63.2,30.00,SE,132,1.3,2.3,71,0.00,-RA,,0.02,WeatherDisplay:10.37,2013-05-17 21:46:00,
2013-05-17 17:51:00,73.0,63.1,30.00,South,177,0.7,1.1,71,0.00,-RA,,0.02,WeatherDisplay:10.37,2013-05-17 21:51:00,
2013-05-17 17:56:00,72.5,62.6,30.00,East,87,1.3,1.3,71,0.00,-RA,,0.02,WeatherDisplay:10.37,2013-05-17 21:56:00,
2013-05-17 18:01:00,72.3,62.8,30.00,SE,132,0.0,0.0,72,0.00,-RA,,0.02,WeatherDisplay:10.37,2013-05-17 22:01:00,
2013-05-17 18:06:00,72.0,62.8,30.00,SSW,199,0.0,0.0,73,0.00,-RA,,0.02,WeatherDisplay:10.37,2013-05-17 22:06:00,
2013-05-17 18:11:00,71.8,62.7,30.00,ESE,109,0.0,0.0,73,0.00,FEW,,0.02,WeatherDisplay:10.37,2013-05-17 22:11:00,
2013-05-17 18:16:00,71.8,62.7,29.99,SW,222,0.0,0.0,73,0.00,FEW,,0.02,WeatherDisplay:10.37,2013-05-17 22:16:00,
2013-05-17 18:21:00,71.8,62.7,30.00,East,87,0.0,2.3,73,0.00,FEW,,0.02,WeatherDisplay:10.37,2013-05-17 22:21:00,
2013-05-17 18:26:00,71.8,62.7,29.99,ENE,65,0.0,0.0,73,0.00,FEW,,0.02,WeatherDisplay:10.37,2013-05-17 22:26:00,
2013-05-17 18:31:00,72.0,63.2,30.00,SSE,155,0.0,0.0,74,0.00,FEW,,0.02,WeatherDisplay:10.37,2013-05-17 22:31:00,
2013-05-17 18:36:00,72.3,63.6,30.00,SE,132,0.0,3.5,74,0.00,FEW,,0.02,WeatherDisplay:10.37,2013-05-17 22:36:00,
2013-05-17 18:41:00,73.2,64.4,29.99,ESE,109,0.2,1.8,74,0.00,FEW,,0.02,WeatherDisplay:10.37,2013-05-17 22:41:00,
2013-05-17 18:46:00,73.8,64.6,29.99,SSE,155,1.3,1.6,73,0.02,RA,,0.04,WeatherDisplay:10.37,2013-05-17 22:46:00,
2013-05-17 18:51:00,74.1,64.5,30.00,SSW,199,6.9,6.9,72,0.02,RA,,0.04,WeatherDisplay:10.37,2013-05-17 22:51:00,
2013-05-17 18:56:00,74.1,64.1,30.00,South,177,0.0,0.0,71,0.02,FEW,,0.04,WeatherDisplay:10.37,2013-05-17 22:56:00,
2013-05-17 19:01:00,73.8,63.8,30.00,SSE,155,2.5,3.5,71,0.02,FEW,,0.04,WeatherDisplay:10.37,2013-05-17 23:01:00,
2013-05-17 19:06:00,73.2,62.8,29.99,East,87,1.6,1.6,70,0.02,FEW,,0.04,WeatherDisplay:10.37,2013-05-17 23:06:00,
2013-05-17 19:11:00,73.0,62.7,29.99,SSE,155,0.0,0.0,70,0.02,BKN,,0.04,WeatherDisplay:10.37,2013-05-17 23:11:00,
2013-05-17 19:16:00,72.3,62.4,29.99,SSE,155,0.0,0.0,71,0.02,BKN,,0.04,WeatherDisplay:10.37,2013-05-17 23:16:00,
2013-05-17 19:21:00,72.3,62.8,30.00,SW,222,0.0,0.0,72,0.02,BKN,,0.04,WeatherDisplay:10.37,2013-05-17 23:21:00,
2013-05-17 19:26:00,72.3,62.8,30.00,ESE,109,0.2,2.2,72,0.02,BKN,,0.04,WeatherDisplay:10.37,2013-05-17 23:26:00,
2013-05-17 19:31:00,72.0,62.4,30.00,North,357,0.7,1.1,72,0.02,BKN,,0.04,WeatherDisplay:10.37,2013-05-17 23:31:00,
2013-05-17 19:36:00,71.8,62.3,30.00,SE,132,0.0,1.1,72,0.02,BKN,,0.04,WeatherDisplay:10.37,2013-05-17 23:36:00,
2013-05-17 19:41:00,71.8,62.3,30.00,SSE,155,0.0,0.0,72,0.02,BKN,,0.04,WeatherDisplay:10.37,2013-05-17 23:41:00,
2013-05-17 19:46:00,71.4,62.3,30.00,ESE,109,1.2,1.3,73,0.00,BKN,,0.04,WeatherDisplay:10.37,2013-05-17 23:46:00,
2013-05-17 19:51:00,71.2,62.1,29.99,SSW,199,0.0,0.0,73,0.00,BKN,,0.04,WeatherDisplay:10.37,2013-05-17 23:51:00,
2013-05-17 19:56:00,70.9,61.8,30.00,East,87,1.2,1.2,73,0.00,BKN,,0.04,WeatherDisplay:10.37,2013-05-17 23:56:00,
2013-05-17 20:01:00,70.5,61.4,29.99,SSE,155,0.0,0.0,73,0.00,BKN,,0.04,WeatherDisplay:10.37,2013-05-18 00:01:00,
2013-05-17 20:06:00,70.3,61.7,29.99,NE,42,0.0,0.0,74,0.00,BKN,,0.04,WeatherDisplay:10.37,2013-05-18 00:06:00,
2013-05-17 20:11:00,69.6,61.0,29.99,ENE,65,0.0,0.0,74,0.00,BKN,,0.04,WeatherDisplay:10.37,2013-05-18 00:11:00,
2013-05-17 20:16:00,69.4,61.2,29.99,NE,42,0.0,0.0,75,0.00,BKN,,0.04,WeatherDisplay:10.37,2013-05-18 00:16:00,
2013-05-17 20:21:00,68.9,61.0,29.99,ENE,65,0.0,0.0,76,0.00,BKN,,0.04,WeatherDisplay:10.37,2013-05-18 00:21:00,
2013-05-17 20:26:00,68.5,60.7,29.99,NE,42,0.0,0.0,76,0.00,BKN,,0.04,WeatherDisplay:10.37,2013-05-18 00:26:00,
2013-05-17 20:31:00,68.2,61.1,30.00,East,87,0.0,0.0,78,0.00,BKN,,0.04,WeatherDisplay:10.37,2013-05-18 00:31:00,
2013-05-17 20:36:00,67.8,60.7,29.99,NE,42,0.0,0.0,78,0.00,BKN,,0.04,WeatherDisplay:10.37,2013-05-18 00:36:00,
2013-05-17 20:41:00,67.8,60.7,30.00,ENE,65,0.0,0.0,78,0.00,BKN,,0.04,WeatherDisplay:10.37,2013-05-18 00:41:00,
2013-05-17 20:46:00,67.3,60.5,29.99,ENE,65,0.0,0.0,79,0.00,BKN,,0.04,WeatherDisplay:10.37,2013-05-18 00:46:00,
2013-05-17 20:51:00,66.9,60.5,29.99,ENE,65,0.0,0.0,80,0.00,BKN,,0.04,WeatherDisplay:10.37,2013-05-18 00:51:00,
2013-05-17 20:56:00,66.7,60.4,30.00,East,87,0.0,1.1,80,0.00,BKN,,0.04,WeatherDisplay:10.37,2013-05-18 00:56:00,
2013-05-17 21:01:00,66.6,60.2,29.99,NE,42,0.0,0.0,80,0.00,BKN,,0.04,WeatherDisplay:10.37,2013-05-18 01:01:00,
2013-05-17 21:06:00,66.6,60.5,30.00,ESE,109,0.0,1.1,81,0.00,BKN,,0.04,WeatherDisplay:10.37,2013-05-18 01:06:00,
2013-05-17 21:11:00,66.4,60.7,30.00,East,87,0.0,0.0,82,0.00,BKN,,0.04,WeatherDisplay:10.37,2013-05-18 01:11:00,
2013-05-17 21:16:00,66.4,60.7,30.00,East,87,0.0,0.0,82,0.00,BKN,,0.04,WeatherDisplay:10.37,2013-05-18 01:16:00,
2013-05-17 21:21:00,66.4,61.1,30.00,ENE,65,0.0,0.0,83,0.00,BKN,,0.04,WeatherDisplay:10.37,2013-05-18 01:21:00,
2013-05-17 21:26:00,66.2,60.9,30.00,SE,132,0.0,0.0,83,0.00,BKN,,0.04,WeatherDisplay:10.37,2013-05-18 01:26:00,
2013-05-17 21:31:00,66.0,60.4,30.00,North,357,0.0,0.0,82,0.00,BKN,,0.04,WeatherDisplay:10.37,2013-05-18 01:31:00,
2013-05-17 21:36:00,66.0,60.4,30.00,ENE,65,0.0,0.0,82,0.00,BKN,,0.04,WeatherDisplay:10.37,2013-05-18 01:36:00,
2013-05-17 21:41:00,66.0,60.7,30.00,ESE,109,0.0,0.0,83,0.00,BKN,,0.04,WeatherDisplay:10.37,2013-05-18 01:41:00,
2013-05-17 21:46:00,66.0,60.7,30.00,NE,42,0.0,0.0,83,0.00,BKN,,0.04,WeatherDisplay:10.37,2013-05-18 01:46:00,
2013-05-17 21:51:00,66.0,61.0,30.00,East,87,0.0,0.0,84,0.00,BKN,,0.04,WeatherDisplay:10.37,2013-05-18 01:51:00,
2013-05-17 21:56:00,66.0,61.0,30.00,ESE,109,0.0,0.0,84,0.00,BKN,,0.04,WeatherDisplay:10.37,2013-05-18 01:56:00,
2013-05-17 22:01:00,65.8,60.9,30.00,ESE,109,0.0,0.0,84,0.00,BKN,,0.04,WeatherDisplay:10.37,2013-05-18 02:01:00,
2013-05-17 22:06:00,65.8,60.9,30.00,NE,42,0.0,0.0,84,0.00,BKN,,0.04,WeatherDisplay:10.37,2013-05-18 02:06:00,
2013-05-17 22:11:00,65.8,60.9,30.01,East,87,1.3,1.3,84,0.00,OVC,,0.04,WeatherDisplay:10.37,2013-05-18 02:11:00,
2013-05-17 22:16:00,65.8,60.9,30.01,SE,132,0.0,0.0,84,0.00,OVC,,0.04,WeatherDisplay:10.37,2013-05-18 02:16:00,
2013-05-17 22:21:00,65.8,60.9,30.01,ESE,109,0.0,0.0,84,0.00,OVC,,0.04,WeatherDisplay:10.37,2013-05-18 02:21:00,
2013-05-17 22:26:00,65.8,60.9,30.02,East,87,0.0,0.0,84,0.00,OVC,,0.04,WeatherDisplay:10.37,2013-05-18 02:26:00,
2013-05-17 22:31:00,65.7,60.7,30.02,ENE,65,0.0,0.0,84,0.00,OVC,,0.04,WeatherDisplay:10.37,2013-05-18 02:31:00,
2013-05-17 22:36:00,65.7,60.7,30.02,WNW,289,0.0,0.0,84,0.00,OVC,,0.04,WeatherDisplay:10.37,2013-05-18 02:36:00,
2013-05-17 22:41:00,65.5,60.5,30.02,SW,222,0.0,0.0,84,0.00,OVC,,0.04,WeatherDisplay:10.37,2013-05-18 02:41:00,
2013-05-17 22:46:00,65.5,60.5,30.03,SSW,199,0.0,0.0,84,0.00,OVC,,0.04,WeatherDisplay:10.37,2013-05-18 02:46:00,
2013-05-17 22:51:00,65.5,60.2,30.03,SSW,199,2.9,3.5,83,0.00,OVC,,0.04,WeatherDisplay:10.37,2013-05-18 02:51:00,
2013-05-17 22:56:00,65.5,60.2,30.03,SSW,199,0.0,0.0,83,0.00,OVC,,0.04,WeatherDisplay:10.37,2013-05-18 02:56:00,
2013-05-17 23:01:00,65.5,60.5,30.03,SSW,199,1.2,2.3,84,0.00,OVC,,0.04,WeatherDisplay:10.37,2013-05-18 03:01:00,
2013-05-17 23:06:00,65.5,60.2,30.03,South,177,1.9,2.3,83,0.00,OVC,,0.04,WeatherDisplay:10.37,2013-05-18 03:06:00,
2013-05-17 23:11:00,65.5,60.2,30.03,ESE,109,1.5,2.3,83,0.00,-RA,,0.04,WeatherDisplay:10.37,2013-05-18 03:11:00,
2013-05-17 23:16:00,65.5,60.5,30.03,ENE,65,1.3,1.6,84,0.00,-RA,,0.04,WeatherDisplay:10.37,2013-05-18 03:16:00,
2013-05-17 23:21:00,65.5,60.5,30.02,NE,42,1.8,2.3,84,0.00,-RA,,0.04,WeatherDisplay:10.37,2013-05-18 03:21:00,
2013-05-17 23:26:00,65.5,60.8,30.02,ESE,109,3.4,3.5,85,0.00,-RA,,0.04,WeatherDisplay:10.37,2013-05-18 03:26:00,
2013-05-17 23:31:00,65.3,60.7,30.02,ENE,65,1.5,2.3,85,0.00,-RA,,0.04,WeatherDisplay:10.37,2013-05-18 03:31:00,
2013-05-17 23:36:00,65.1,60.5,30.02,NE,42,1.6,1.6,85,0.00,-RA,,0.04,WeatherDisplay:10.37,2013-05-18 03:36:00,
2013-05-17 23:41:00,65.1,60.5,30.02,ENE,65,0.1,0.7,85,0.00,-RA,,0.04,WeatherDisplay:10.37,2013-05-18 03:41:00,
2013-05-17 23:46:00,65.1,60.5,30.02,ESE,109,1.9,2.3,85,0.00,-RA,,0.04,WeatherDisplay:10.37,2013-05-18 03:46:00,
2013-05-17 23:51:00,65.1,60.5,30.02,SE,132,0.0,3.5,85,0.00,-RA,,0.04,WeatherDisplay:10.37,2013-05-18 03:51:00,
2013-05-17 23:56:00,65.1,60.5,30.02,East,87,0.0,0.9,85,0.00,-RA,,0.04,WeatherDisplay:10.37,2013-05-18 03:56:00,